Terry, MT

8:39 AM MST on February 11, 2016 (GMT -0700)
Dawson Community | | Change Station
CLOSE
Current Station
Airport
Location: Glendive,
Elevation: 2457 ft
Nearby Weather Stations

Elev 2457 ft 47.14 °N, 104.81 °W | Updated 4 minutes ago

Mostly Cloudy
Mostly Cloudy
28 °F
Feels Like 20 °F
N
8
Wind Variable Wind from NE

Today
High -- | Low -- °F
--% Chance of Precip.
Yesterday
High -- | Low -- °F
Precip. -- in
Pressure 30.03 in
Visibility 1.0 miles
Clouds Mostly Cloudy 600 ft
Mostly Cloudy 1200 ft
Overcast 2000 ft
Windchill 20 °F
Dew Point 27 °F
Humidity 93%
Rainfall 0.00 in
Snow Depth Not available.
7:12 AM 5:19 PM
Waxing Crescent, 12% visible
METAR KGDV 111535Z AUTO 04007KT 1SM BKN006 BKN012 OVC020 M02/M03 A3003 RMK AO1
Pressure 30.03 in
Visibility 1.0 miles
Clouds Mostly Cloudy 600 ft
Mostly Cloudy 1200 ft
Overcast 2000 ft
Windchill 20 °F
Dew Point 27 °F
Humidity 93%
Rainfall 0.00 in
Snow Depth Not available.
7:12 AM 5:19 PM
Waxing Crescent, 12% visible
METAR KGDV 111535Z AUTO 04007KT 1SM BKN006 BKN012 OVC020 M02/M03 A3003 RMK AO1

10-Day Weather Forecast

Almanac

Astronomy

Feb. 11, 2016 Rise Set
Actual Time
Civil Twilight
Nautical Twilight
Astronomical Twilight
Moon
Length of Visible Light
Length of Day
Tomorrow will be .
, % of the Moon is Illuminated

Today's Extremes

State Highs State Lows

Community

WunderPhotos

Upload Photos

1,892,078 photos uploaded!

WunderBlog® & News

Nearby

Air Quality

  Air Quality AQ Index Pollutant
Not available.

Snow Depth

Station Depth Elevation

Earthquake Activity

City Distance Mag. Time & Date
Minimum magnitude displayed is 2.5.

Coastal Water Temperatures

Place Temperature

Stations

Nearby Weather Stations

Station Location Temp. Windchill Dew Point Humidity Wind Precip. Elev Updated Type
                   

Watches & Warnings

There are currently no watches in effect.